»·PEaware :: DAL5042 KSLC-KLAS

DAL5042 :: KSLC-KLAS

FLIGHT INFORMATION

Flight Status: Arrived
Operator:
Delta Air Lines
More flights by this operator :: More flights under this callsign
Pilot: Aundrey S. (17120)
Aircraft: BOEING 717-200
(B712)
More flights by this aircraft type
Origin: KSLC Salt Lake City Intl
United States
Destination: KLAS McCarran Intl
United States
More flights between these airports :: More routes between these airports
Route: ARCHZ1 MLF MPIRE SITEE3
File this flight plan on PilotEdge
Remarks:
Altitude:
(Current/Filed)
32,000ft
Speed:
(Current/Filed)
450kts
Departed: 07-Aug-18 04:42 PM
Arrived: 07-Aug-18 05:38 PM
Distance/Time
Traveled:
319nm/0:55
Distance/Time
To Go:
Arrived

Flight Plot

Page will automatically refresh every two minutes.

Flight plan parsing failed; only flown route is shown


Map Options




Map Legend


Flown Route
Filed Route
Departure Airport
Arrival Airport
Navaid (VOR, NDB)
Fix

Horizontal Profiles

Position Reports

Time Latitude Longitude Heading Altitude Ground
Speed
07-Aug-18 15:50 40.787842 -111.982065 103 4235ft 0kts
07-Aug-18 15:51 40.787842 -111.982065 103 4235ft 0kts
07-Aug-18 15:52 40.787842 -111.982065 103 4235ft 0kts
07-Aug-18 15:53 40.787842 -111.982065 103 4235ft 0kts
07-Aug-18 15:54 40.787842 -111.982065 103 4235ft 0kts
07-Aug-18 15:55 40.787842 -111.982065 103 4235ft 0kts
07-Aug-18 15:56 40.787842 -111.982065 103 4235ft 0kts
07-Aug-18 15:57 40.787842 -111.982065 103 4235ft 0kts
07-Aug-18 15:58 40.787842 -111.982065 103 4235ft 0kts
07-Aug-18 15:59 40.787842 -111.982065 103 4235ft 0kts
07-Aug-18 16:00 40.787842 -111.982065 103 4235ft 0kts
07-Aug-18 16:01 40.787842 -111.982065 103 4235ft 0kts
07-Aug-18 16:02 40.787842 -111.982065 103 4235ft 0kts
07-Aug-18 16:03 40.787842 -111.982065 103 4235ft 0kts
07-Aug-18 16:04 40.787842 -111.982065 103 4235ft 0kts
07-Aug-18 16:05 40.787842 -111.982065 103 4235ft 0kts
07-Aug-18 16:06 40.787842 -111.982065 103 4235ft 0kts
07-Aug-18 16:07 40.787842 -111.982065 103 4235ft 0kts
07-Aug-18 16:08 40.787842 -111.982065 103 4235ft 0kts
07-Aug-18 16:09 40.787842 -111.982065 103 4235ft 0kts
07-Aug-18 16:10 40.787842 -111.982065 103 4235ft 0kts
07-Aug-18 16:11 40.787842 -111.982065 103 4235ft 0kts
07-Aug-18 16:12 40.787842 -111.982065 103 4235ft 0kts
07-Aug-18 16:13 40.787842 -111.982065 103 4235ft 0kts
07-Aug-18 16:14 40.787842 -111.982065 103 4235ft 0kts
07-Aug-18 16:15 40.787842 -111.982065 103 4235ft 0kts
07-Aug-18 16:16 40.787842 -111.982065 103 4235ft 0kts
07-Aug-18 16:17 40.787842 -111.982065 103 4235ft 0kts
07-Aug-18 16:18 40.787842 -111.982065 103 4235ft 0kts
07-Aug-18 16:19 40.787842 -111.982065 103 4235ft 0kts
07-Aug-18 16:20 40.787842 -111.982065 103 4235ft 0kts
07-Aug-18 16:21 40.787848 -111.982098 103 4235ft 1kts
07-Aug-18 16:22 40.788018 -111.983059 103 4235ft 2kts
07-Aug-18 16:23 40.788046 -111.983219 103 4235ft 0kts
07-Aug-18 16:24 40.788046 -111.983219 103 4235ft 0kts
07-Aug-18 16:25 40.788046 -111.983218 102 4235ft 0kts
07-Aug-18 16:26 40.788045 -111.983217 102 4235ft 0kts
07-Aug-18 16:27 40.788045 -111.983216 102 4235ft 0kts
07-Aug-18 16:28 40.788045 -111.983215 102 4235ft 0kts
07-Aug-18 16:29 40.788045 -111.983214 102 4235ft 0kts
07-Aug-18 16:30 40.788045 -111.983213 102 4235ft 0kts
07-Aug-18 16:31 40.788045 -111.983212 102 4235ft 0kts
07-Aug-18 16:32 40.788622 -111.982876 1 4235ft 14kts
07-Aug-18 16:33 40.791680 -111.983557 277 4235ft 13kts
07-Aug-18 16:34 40.791211 -111.991284 265 4235ft 24kts
07-Aug-18 16:35 40.788726 -111.994937 174 4235ft 20kts
07-Aug-18 16:36 40.780700 -111.994271 188 4235ft 30kts
07-Aug-18 16:37 40.775770 -111.993916 175 4235ft 7kts
07-Aug-18 16:38 40.775459 -111.994042 220 4235ft 0kts
07-Aug-18 16:39 40.775459 -111.994043 220 4235ft 0kts
07-Aug-18 16:40 40.775345 -111.994206 234 4235ft 8kts
07-Aug-18 16:41 40.775475 -111.995610 351 4235ft 0kts
07-Aug-18 16:42 40.775476 -111.995610 351 4235ft 0kts
07-Aug-18 16:43 40.780749 -111.996243 356 4236ft 104kts
07-Aug-18 16:44 40.816453 -112.021023 283 6184ft 172kts
07-Aug-18 16:45 40.817992 -112.087123 272 7576ft 204kts
07-Aug-18 16:46 40.819380 -112.181837 272 8793ft 290kts
07-Aug-18 16:47 40.816956 -112.278792 248 11737ft 299kts
07-Aug-18 16:48 40.730339 -112.322917 178 14495ft 357kts
07-Aug-18 16:49 40.628341 -112.315841 180 17548ft 375kts
07-Aug-18 16:50 40.523620 -112.328047 200 20290ft 385kts
07-Aug-18 16:51 40.419171 -112.371217 199 22735ft 402kts
07-Aug-18 16:52 40.310006 -112.415683 199 25022ft 416kts
07-Aug-18 16:53 40.198035 -112.461428 202 27071ft 427kts
07-Aug-18 16:54 40.091315 -112.531768 211 28871ft 434kts
07-Aug-18 16:55 39.983886 -112.607238 210 30544ft 441kts
07-Aug-18 16:56 39.875650 -112.682963 210 32082ft 448kts
07-Aug-18 16:57 39.764574 -112.760382 210 32148ft 453kts
07-Aug-18 16:58 39.648482 -112.824161 190 32128ft 460kts
07-Aug-18 16:59 39.521405 -112.842840 189 32125ft 461kts
07-Aug-18 17:00 39.394124 -112.861816 189 32125ft 461kts
07-Aug-18 17:01 39.266816 -112.880700 189 32131ft 460kts
07-Aug-18 17:02 39.138941 -112.899598 189 32134ft 460kts
07-Aug-18 17:03 39.011342 -112.918388 189 32143ft 461kts
07-Aug-18 17:04 38.884237 -112.937036 189 32146ft 460kts
07-Aug-18 17:05 38.756753 -112.955674 189 32144ft 460kts
07-Aug-18 17:06 38.629921 -112.974150 189 32137ft 460kts
07-Aug-18 17:07 38.502619 -112.992628 189 32130ft 460kts
07-Aug-18 17:08 38.375459 -113.012117 194 32127ft 458kts
07-Aug-18 17:09 38.259728 -113.075115 208 32132ft 452kts
07-Aug-18 17:10 38.146622 -113.144581 208 32131ft 452kts
07-Aug-18 17:11 38.032838 -113.214154 208 32138ft 452kts
07-Aug-18 17:12 37.919890 -113.282976 208 32148ft 452kts
07-Aug-18 17:13 37.806133 -113.352054 208 32144ft 452kts
07-Aug-18 17:14 37.692843 -113.420613 208 32135ft 452kts
07-Aug-18 17:15 37.579239 -113.489130 208 32110ft 452kts
07-Aug-18 17:16 37.465873 -113.557263 207 32060ft 452kts
07-Aug-18 17:17 37.352089 -113.625421 207 31987ft 452kts
07-Aug-18 17:18 37.238003 -113.693524 207 30116ft 451kts
07-Aug-18 17:19 37.123415 -113.761712 207 27813ft 460kts
07-Aug-18 17:20 37.009127 -113.829473 207 25353ft 446kts
07-Aug-18 17:21 36.898856 -113.894648 206 22964ft 432kts
07-Aug-18 17:22 36.791945 -113.957638 206 20646ft 416kts
07-Aug-18 17:23 36.689012 -114.018100 205 18417ft 401kts
07-Aug-18 17:24 36.590496 -114.078185 214 16297ft 387kts
07-Aug-18 17:25 36.525739 -114.182096 237 14443ft 377kts
07-Aug-18 17:26 36.471722 -114.290224 239 13003ft 347kts
07-Aug-18 17:27 36.426414 -114.386140 238 12437ft 301kts
07-Aug-18 17:28 36.379491 -114.467109 237 11991ft 285kts
07-Aug-18 17:29 36.337688 -114.548478 237 10971ft 272kts
07-Aug-18 17:30 36.295939 -114.629412 237 9284ft 302kts
07-Aug-18 17:31 36.253124 -114.714433 239 7369ft 289kts
07-Aug-18 17:32 36.213768 -114.796575 239 6955ft 245kts
07-Aug-18 17:33 36.180016 -114.867205 239 6131ft 237kts
07-Aug-18 17:34 36.171394 -114.943274 272 5925ft 202kts
07-Aug-18 17:35 36.174678 -115.008849 272 5981ft 190kts
07-Aug-18 17:36 36.175526 -115.073172 248 5514ft 185kts
07-Aug-18 17:37 36.146328 -115.119459 220 3329ft 157kts
07-Aug-18 17:38 36.112772 -115.145074 206 2621ft 144kts
07-Aug-18 17:39 36.080701 -115.163783 205 2189ft 35kts
07-Aug-18 17:40 36.078074 -115.164107 99 2189ft 0kts
07-Aug-18 17:41 36.078073 -115.164106 99 2189ft 0kts
07-Aug-18 17:42 36.078026 -115.159149 90 2189ft 24kts
07-Aug-18 17:43 36.078672 -115.150696 79 2189ft 20kts
07-Aug-18 17:44 36.078278 -115.143280 91 2189ft 22kts
07-Aug-18 17:45 36.079598 -115.141605 3 2189ft 0kts
07-Aug-18 17:46 36.079876 -115.141419 46 2189ft 0kts
07-Aug-18 17:47 36.080379 -115.141076 65 2189ft 6kts
07-Aug-18 17:48 36.080292 -115.140641 91 2189ft 0kts
07-Aug-18 17:49 36.080292 -115.140641 91 2189ft 0kts

Navigation Log

Ident Type
Flight plan parsing failed, navigation log unavailable